createdAt,value
2023-05-15T00:20:09.320Z,33.61
2023-05-15T00:32:27.430Z,33.62
2023-05-15T00:36:36.519Z,35.01
2023-05-15T00:40:18.459Z,34.55
2023-05-15T01:23:36.427Z,33.14
2023-05-15T01:26:49.648Z,32.39
2023-05-15T01:30:01.473Z,33.03
2023-05-15T01:33:52.527Z,33.06
2023-05-15T01:36:55.122Z,32.49
2023-05-15T01:42:36.517Z,32.83
2023-05-15T01:45:10.719Z,33.59
2023-05-15T01:47:47.946Z,33.40
2023-05-15T01:50:29.158Z,33.00
2023-05-15T01:53:25.608Z,32.68
2023-05-15T01:55:55.830Z,32.35
2023-05-15T01:58:29.469Z,32.68
2023-05-15T02:01:01.691Z,32.78
2023-05-15T02:04:05.658Z,32.95
2023-05-15T02:07:41.419Z,32.39
2023-05-15T02:10:57.087Z,32.20
2023-05-15T02:13:59.252Z,31.50
2023-05-15T02:16:49.871Z,31.50
2023-05-15T02:19:41.149Z,31.28
2023-05-15T02:22:11.966Z,31.32
2023-05-15T02:24:42.476Z,31.17
2023-05-15T02:27:23.380Z,30.96
2023-05-15T02:34:24.680Z,30.94
2023-05-15T02:37:26.320Z,30.96
2023-05-15T02:40:05.592Z,30.87
2023-05-15T02:43:53.558Z,30.77
2023-05-15T02:46:19.054Z,30.56
2023-05-15T02:49:14.450Z,30.65
2023-05-15T02:52:04.215Z,30.38
2023-05-15T02:55:00.374Z,30.29
2023-05-15T02:57:53.485Z,30.09
2023-05-15T03:00:47.709Z,29.96
2023-05-15T03:03:33.995Z,29.46
2023-05-15T03:06:06.221Z,29.67
2023-05-15T03:08:52.577Z,29.67
2023-05-15T03:11:27.742Z,29.54
2023-05-15T03:14:00.459Z,29.37
2023-05-15T03:16:33.678Z,29.20
2023-05-15T03:19:18.583Z,29.12
2023-05-15T03:22:00.301Z,29.04
2023-05-15T03:24:33.908Z,28.79
2023-05-15T03:27:12.677Z,28.79
2023-05-15T03:29:45.790Z,28.69
2023-05-15T03:32:25.403Z,28.56
2023-05-15T03:35:04.374Z,28.37
2023-05-15T03:37:44.625Z,28.27
2023-05-15T03:40:15.134Z,28.14
2023-05-15T03:42:54.233Z,28.02
2023-05-15T03:45:26.399Z,27.90
2023-05-15T03:47:56.492Z,27.81
2023-05-15T03:50:26.256Z,27.63
2023-05-15T03:52:55.423Z,27.52
2023-05-15T03:55:24.725Z,27.42
2023-05-15T03:57:54.358Z,27.33
2023-05-15T04:00:23.676Z,27.21
2023-05-15T04:02:52.900Z,27.13
2023-05-15T04:05:22.737Z,27.03
2023-05-15T04:07:51.916Z,26.92
2023-05-15T04:10:21.107Z,26.91
2023-05-15T04:12:50.127Z,26.77
2023-05-15T04:15:24.792Z,26.75
2023-05-15T04:17:55.595Z,26.64
2023-05-15T04:20:25.715Z,26.63
2023-05-15T04:22:55.038Z,26.57
2023-05-15T04:25:25.577Z,26.53
2023-05-15T04:28:18.905Z,26.44
2023-05-15T04:31:09.042Z,26.32
2023-05-15T04:33:42.845Z,26.22
2023-05-15T04:36:12.393Z,26.15
2023-05-15T04:38:57.694Z,25.76
2023-05-15T04:41:27.786Z,25.66
2023-05-15T04:43:59.786Z,25.25
2023-05-15T04:47:34.750Z,25.55
2023-05-15T04:50:10.849Z,25.51
2023-05-15T04:52:44.286Z,25.54
2023-05-15T04:55:55.772Z,25.38
2023-05-15T04:58:27.075Z,25.32
2023-05-15T05:01:18.581Z,25.35
2023-05-15T05:04:10.383Z,25.30
2023-05-15T05:06:40.016Z,25.24
2023-05-15T05:09:09.369Z,25.22
2023-05-15T05:11:50.124Z,25.19
2023-05-15T05:14:22.581Z,25.11
2023-05-15T05:16:51.703Z,25.03
2023-05-15T05:19:26.654Z,24.99
2023-05-15T05:22:02.908Z,24.88
2023-05-15T05:24:38.635Z,24.77
2023-05-15T05:27:08.743Z,24.58
2023-05-15T05:29:38.171Z,24.59
2023-05-15T05:32:20.365Z,24.08
2023-05-15T05:34:53.293Z,23.95
2023-05-15T05:37:22.220Z,23.55
2023-05-15T05:40:03.368Z,23.82
2023-05-15T05:42:32.981Z,23.77
2023-05-15T05:45:02.335Z,23.72
2023-05-15T05:47:31.828Z,23.50
2023-05-15T05:50:04.009Z,23.14
2023-05-15T05:52:46.429Z,23.03
2023-05-15T05:55:24.356Z,22.98
2023-05-15T05:58:03.444Z,22.96
2023-05-15T06:00:44.188Z,23.36
2023-05-15T06:03:31.859Z,23.53
2023-05-15T06:06:05.928Z,23.53
2023-05-15T06:08:35.434Z,23.49
2023-05-15T06:11:10.825Z,23.42
2023-05-15T06:13:50.390Z,23.38
2023-05-15T06:16:22.841Z,23.32
2023-05-15T06:18:52.602Z,23.27
2023-05-15T06:21:26.645Z,23.20
2023-05-15T06:24:06.166Z,23.00
2023-05-15T06:26:39.127Z,23.04
2023-05-15T06:29:24.898Z,23.06
2023-05-15T06:32:03.694Z,22.85
2023-05-15T06:34:35.624Z,22.72
2023-05-15T06:37:05.220Z,22.72
2023-05-15T06:39:54.654Z,22.35
2023-05-15T06:42:24.637Z,22.65
2023-05-15T06:45:06.194Z,22.67
2023-05-15T06:47:42.020Z,22.50
2023-05-15T06:50:17.487Z,22.36
2023-05-15T06:52:54.900Z,22.43
2023-05-15T06:55:25.051Z,22.52
2023-05-15T06:58:21.823Z,22.56
2023-05-15T07:00:59.390Z,22.41
2023-05-15T07:03:52.181Z,22.31
2023-05-15T07:06:28.694Z,22.28
2023-05-15T07:09:08.369Z,22.33
2023-05-15T07:11:41.207Z,22.21
2023-05-15T07:14:14.661Z,21.90
2023-05-15T07:16:49.916Z,21.89
2023-05-15T07:19:21.991Z,22.02
2023-05-15T07:21:51.156Z,22.03
2023-05-15T07:24:28.861Z,21.95
2023-05-15T07:27:01.120Z,22.02
2023-05-15T07:29:30.540Z,22.00
2023-05-15T07:32:02.487Z,21.91
2023-05-15T07:34:34.342Z,21.61
2023-05-15T07:37:03.817Z,21.31
2023-05-15T07:39:36.849Z,21.22
2023-05-15T07:42:10.498Z,21.65
2023-05-15T07:44:45.020Z,21.49
2023-05-15T07:47:22.462Z,21.31
2023-05-15T07:49:51.647Z,21.30
2023-05-15T07:52:26.744Z,21.07
2023-05-15T07:55:05.245Z,21.13
2023-05-15T07:57:39.327Z,21.08
2023-05-15T08:00:13.079Z,21.05
2023-05-15T08:02:50.192Z,20.60
2023-05-15T08:05:28.290Z,20.79
2023-05-15T08:07:58.534Z,21.12
2023-05-15T08:10:42.355Z,21.02
2023-05-15T08:13:44.074Z,21.06
2023-05-15T08:16:17.242Z,20.83
2023-05-15T08:18:54.412Z,20.49
2023-05-15T08:21:26.587Z,20.78
2023-05-15T08:24:08.838Z,20.69
2023-05-15T08:26:47.104Z,20.65
2023-05-15T08:29:17.646Z,20.64
2023-05-15T08:31:46.805Z,20.46
2023-05-15T08:34:19.280Z,20.29
2023-05-15T08:36:54.282Z,19.80
2023-05-15T08:39:38.240Z,20.22
2023-05-15T08:42:23.058Z,19.91
2023-05-15T08:44:59.064Z,20.13
2023-05-15T08:47:41.473Z,19.92
2023-05-15T08:50:18.888Z,20.15
2023-05-15T08:52:55.360Z,19.41
2023-05-15T08:55:25.476Z,19.36
2023-05-15T08:57:55.718Z,19.27
2023-05-15T09:00:25.009Z,19.35
2023-05-15T09:02:59.473Z,19.71
2023-05-15T09:05:30.747Z,19.61
2023-05-15T09:08:13.527Z,18.76
2023-05-15T09:10:46.584Z,19.17
2023-05-15T09:13:18.843Z,19.45
2023-05-15T09:15:51.633Z,19.50
2023-05-15T09:18:24.236Z,19.25
2023-05-15T09:21:26.465Z,18.64
2023-05-15T09:23:57.946Z,18.87
2023-05-15T09:26:27.281Z,18.75
2023-05-15T09:29:05.755Z,18.66
2023-05-15T09:32:07.874Z,19.09
2023-05-15T09:34:42.659Z,19.50
2023-05-15T09:37:28.767Z,19.42
2023-05-15T09:40:15.346Z,19.26
2023-05-15T09:42:55.724Z,18.40
2023-05-15T09:45:30.697Z,18.44
2023-05-15T09:48:05.639Z,18.61
2023-05-15T09:50:39.841Z,18.74
2023-05-15T09:53:14.062Z,18.79
2023-05-15T09:55:53.694Z,18.74
2023-05-15T09:58:28.699Z,18.85
2023-05-15T10:01:02.347Z,18.65
2023-05-15T10:03:33.792Z,19.03
2023-05-15T10:06:06.111Z,19.03
2023-05-15T10:08:42.158Z,18.90
2023-05-15T10:11:14.529Z,19.04
2023-05-15T10:13:45.840Z,18.70
2023-05-15T10:16:17.908Z,18.71
2023-05-15T10:18:49.650Z,18.90
2023-05-15T10:21:23.931Z,18.61
2023-05-15T10:23:58.342Z,18.58
2023-05-15T10:26:42.817Z,18.23
2023-05-15T10:29:14.386Z,18.23
2023-05-15T10:31:44.707Z,18.37
2023-05-15T10:34:15.158Z,18.34
2023-05-15T10:36:56.408Z,17.98
2023-05-15T10:39:30.444Z,17.66
2023-05-15T10:42:01.443Z,17.85
2023-05-15T10:44:35.811Z,17.85
2023-05-15T10:47:06.932Z,18.27
2023-05-15T10:49:39.331Z,18.37
2023-05-15T10:52:10.192Z,18.22
2023-05-15T10:54:48.323Z,18.20
2023-05-15T10:57:25.610Z,17.98
2023-05-15T11:00:07.364Z,18.14
2023-05-15T11:02:45.812Z,18.30
2023-05-15T11:05:25.550Z,18.03
2023-05-15T11:08:32.998Z,17.87
2023-05-15T11:11:08.274Z,17.48
2023-05-15T11:14:10.802Z,17.97
2023-05-15T11:17:05.189Z,18.11
2023-05-15T11:19:39.756Z,17.64
2023-05-15T11:22:22.120Z,16.98
2023-05-15T11:25:17.457Z,17.23
2023-05-15T11:27:47.798Z,17.32
2023-05-15T11:30:30.023Z,17.25
2023-05-15T11:33:02.864Z,17.47
2023-05-15T11:35:37.189Z,17.35
2023-05-15T11:38:14.005Z,16.90
2023-05-15T11:41:05.522Z,17.05
2023-05-15T11:43:42.252Z,17.33
2023-05-15T11:46:18.848Z,17.22
2023-05-15T11:48:48.880Z,17.03
2023-05-15T11:51:23.566Z,17.21
2023-05-15T11:53:56.804Z,16.99
2023-05-15T11:56:32.618Z,16.81
2023-05-15T11:59:03.240Z,17.31
2023-05-15T12:01:48.359Z,16.89
2023-05-15T12:04:19.260Z,16.74
2023-05-15T12:06:52.103Z,16.97
2023-05-15T12:09:28.247Z,16.36
2023-05-15T12:11:57.564Z,16.75
2023-05-15T12:14:40.824Z,16.88
2023-05-15T12:17:10.010Z,16.60
2023-05-15T12:19:40.299Z,16.51
2023-05-15T12:22:11.256Z,17.04
2023-05-15T12:24:40.660Z,17.17
2023-05-15T12:27:20.047Z,16.97
2023-05-15T12:29:54.361Z,16.71
2023-05-15T12:32:25.632Z,16.86
2023-05-15T12:35:01.227Z,16.95
2023-05-15T12:37:36.522Z,17.01
2023-05-15T12:40:16.245Z,16.85
2023-05-15T12:42:50.441Z,16.65
2023-05-15T12:45:21.305Z,16.42
2023-05-15T12:47:55.714Z,16.18
2023-05-15T12:50:46.510Z,16.15
2023-05-15T12:53:17.174Z,16.35
2023-05-15T12:55:47.942Z,16.33
2023-05-15T12:58:42.268Z,16.52
2023-05-15T13:01:14.533Z,16.54
2023-05-15T13:03:50.449Z,16.66
2023-05-15T13:06:20.028Z,16.94
2023-05-15T13:08:52.171Z,16.47
2023-05-15T13:11:21.668Z,16.52
2023-05-15T13:13:51.561Z,16.40
2023-05-15T13:16:22.710Z,16.39
2023-05-15T13:18:52.375Z,16.11
2023-05-15T13:21:23.806Z,16.46
2023-05-15T13:23:53.794Z,16.15
2023-05-15T13:26:23.420Z,16.63
2023-05-15T13:28:55.372Z,16.32
2023-05-15T13:31:24.830Z,16.17
2023-05-15T13:33:53.974Z,16.14
2023-05-15T13:36:27.045Z,15.89
2023-05-15T13:39:09.086Z,16.16
2023-05-15T13:41:38.647Z,16.05
2023-05-15T13:44:08.982Z,16.36
2023-05-15T13:46:50.005Z,16.62
2023-05-15T13:49:39.049Z,16.77
2023-05-15T13:52:08.338Z,16.73
2023-05-15T13:54:45.001Z,16.78
2023-05-15T13:57:17.295Z,16.70
2023-05-15T13:59:46.340Z,16.63
2023-05-15T14:02:15.527Z,16.78
2023-05-15T14:04:45.184Z,16.90
2023-05-15T14:07:14.167Z,16.91
2023-05-15T14:09:43.067Z,16.98
2023-05-15T14:12:12.143Z,17.04
2023-05-15T14:14:41.070Z,16.44
2023-05-15T14:17:10.051Z,16.26
2023-05-15T14:19:38.912Z,16.92
2023-05-15T14:22:07.911Z,17.30
2023-05-15T14:24:36.839Z,17.27
2023-05-15T14:27:06.099Z,17.53
2023-05-15T14:29:35.270Z,17.61
2023-05-15T14:32:04.216Z,17.58
2023-05-15T14:34:33.188Z,17.50
2023-05-15T14:37:02.294Z,17.64
2023-05-15T14:39:31.543Z,17.51
2023-05-15T14:42:00.514Z,17.71
2023-05-15T14:44:29.836Z,17.71
2023-05-15T14:47:13.571Z,17.52
2023-05-15T14:49:42.547Z,17.43
2023-05-15T14:52:13.096Z,17.37
2023-05-15T14:54:42.688Z,17.49
2023-05-15T14:57:11.679Z,17.80
2023-05-15T14:59:40.669Z,17.90
2023-05-15T15:02:09.770Z,18.17
2023-05-15T15:04:38.787Z,18.17
2023-05-15T15:07:14.675Z,18.14
2023-05-15T15:09:43.747Z,18.16
2023-05-15T15:12:12.664Z,18.23
2023-05-15T15:14:41.841Z,18.07
2023-05-15T15:17:10.731Z,18.05
2023-05-15T15:19:39.853Z,18.04
2023-05-15T15:22:08.726Z,17.88
2023-05-15T15:24:37.687Z,18.25
2023-05-15T15:27:07.760Z,18.49
2023-05-15T15:29:36.869Z,18.63
2023-05-15T15:32:06.134Z,18.83
2023-05-15T15:34:35.153Z,18.82
2023-05-15T15:37:04.152Z,18.79
2023-05-15T15:39:34.050Z,18.92
2023-05-15T15:42:05.122Z,18.99
2023-05-15T15:44:35.679Z,19.05
2023-05-15T15:47:05.414Z,19.19
2023-05-15T15:49:34.479Z,19.35
2023-05-15T15:52:03.427Z,19.39
2023-05-15T15:54:34.075Z,19.36
2023-05-15T15:57:05.535Z,19.55
2023-05-15T15:59:34.549Z,19.62
2023-05-15T16:02:07.008Z,19.50
2023-05-15T16:04:40.050Z,19.80
2023-05-15T16:07:09.147Z,19.84
2023-05-15T16:09:38.038Z,19.78
2023-05-15T16:12:07.204Z,19.62
2023-05-15T16:14:36.091Z,19.83
2023-05-15T16:17:05.412Z,19.86
2023-05-15T16:19:37.121Z,19.67
2023-05-15T16:22:06.489Z,19.73
2023-05-15T16:24:38.112Z,19.73
2023-05-15T16:27:07.289Z,19.80
2023-05-15T16:29:36.279Z,19.93
2023-05-15T16:32:06.227Z,19.99
2023-05-15T16:34:35.185Z,20.05
2023-05-15T16:37:04.267Z,20.29
2023-05-15T16:39:40.069Z,20.41
2023-05-15T16:42:09.621Z,20.54
2023-05-15T16:44:38.639Z,20.49
2023-05-15T16:47:07.909Z,20.61
2023-05-15T16:49:36.884Z,20.88
2023-05-15T16:52:06.032Z,21.02
2023-05-15T16:54:35.019Z,21.41
2023-05-15T16:57:04.376Z,21.74
2023-05-15T16:59:33.667Z,21.99
2023-05-15T17:02:02.592Z,21.97
2023-05-15T17:04:33.014Z,22.00
2023-05-15T17:07:02.684Z,22.10
2023-05-15T17:09:31.677Z,22.49
2023-05-15T17:12:00.890Z,22.56
2023-05-15T17:14:30.695Z,23.05
2023-05-15T17:17:02.928Z,23.26
2023-05-15T17:19:35.420Z,23.39
2023-05-15T17:22:05.995Z,23.31
2023-05-15T17:24:49.469Z,23.48
2023-05-15T17:27:21.319Z,23.51
2023-05-15T17:29:52.071Z,23.88
2023-05-15T17:32:21.559Z,24.07
2023-05-15T17:34:53.534Z,24.07
2023-05-15T17:37:23.534Z,24.08
2023-05-15T17:39:54.092Z,24.20
2023-05-15T17:42:25.896Z,24.33
2023-05-15T17:44:57.174Z,24.39
2023-05-15T17:47:29.675Z,24.80
2023-05-15T17:49:59.849Z,24.89
2023-05-15T17:52:29.719Z,24.84
2023-05-15T17:54:58.846Z,24.94
2023-05-15T17:57:28.448Z,25.13
2023-05-15T17:59:57.679Z,25.36
2023-05-15T18:02:29.591Z,25.55
2023-05-15T18:04:58.744Z,25.71
2023-05-15T18:07:31.942Z,26.01
2023-05-15T18:10:04.068Z,26.31
2023-05-15T18:12:34.135Z,26.46
2023-05-15T18:15:03.420Z,26.60
2023-05-15T18:17:33.750Z,26.79
2023-05-15T18:20:06.530Z,27.06
2023-05-15T18:22:35.678Z,27.17
2023-05-15T18:25:08.093Z,27.39
2023-05-15T18:27:37.870Z,27.63
2023-05-15T18:30:24.989Z,27.69
2023-05-15T18:32:54.313Z,27.93
2023-05-15T18:35:29.011Z,28.07
2023-05-15T18:38:05.054Z,27.59
2023-05-15T18:40:34.395Z,27.37
2023-05-15T18:43:06.499Z,27.58
2023-05-15T18:45:35.746Z,27.57
2023-05-15T18:48:05.126Z,27.77
2023-05-15T18:50:34.354Z,28.27
2023-05-15T18:53:11.288Z,28.62
2023-05-15T18:55:41.427Z,28.72
2023-05-15T18:58:11.399Z,28.44
2023-05-15T19:00:42.561Z,28.63
2023-05-15T19:03:12.026Z,28.55
2023-05-15T19:05:47.183Z,28.92
2023-05-15T19:08:19.413Z,29.39
2023-05-15T19:10:52.180Z,29.62
2023-05-15T19:13:21.540Z,29.87
2023-05-15T19:15:54.689Z,29.83
2023-05-15T19:18:24.445Z,29.93
2023-05-15T19:20:55.100Z,30.24
2023-05-15T19:23:25.425Z,30.41
2023-05-15T19:25:54.344Z,30.45
2023-05-15T19:28:23.275Z,30.57
2023-05-15T19:30:52.341Z,30.45
2023-05-15T19:33:25.406Z,30.22
2023-05-15T19:35:57.955Z,30.14
2023-05-15T19:38:43.418Z,30.46
2023-05-15T19:41:43.834Z,30.68
2023-05-15T19:44:22.435Z,30.95
2023-05-15T19:46:54.806Z,31.24
2023-05-15T19:49:30.135Z,31.38
2023-05-15T19:55:30.468Z,31.95
2023-05-15T19:58:36.366Z,32.01
2023-05-15T20:01:59.291Z,32.29
2023-05-15T20:05:11.445Z,32.41
2023-05-15T20:08:11.384Z,32.18
2023-05-15T20:11:01.262Z,31.99
2023-05-15T20:13:57.031Z,31.67
2023-05-15T20:16:58.412Z,31.66
2023-05-15T20:20:37.176Z,31.65
2023-05-15T20:23:32.925Z,31.96
2023-05-15T20:26:22.569Z,31.96
2023-05-15T20:28:57.495Z,31.78
2023-05-15T20:31:49.166Z,31.56
2023-05-15T20:34:55.629Z,31.55
2023-05-15T20:38:36.712Z,31.32
2023-05-15T20:40:46.261Z,30.91
2023-05-15T20:43:57.293Z,30.62
2023-05-15T20:46:10.247Z,30.57
2023-05-15T20:48:39.526Z,30.70
2023-05-15T20:51:15.196Z,30.73
2023-05-15T20:53:50.513Z,30.83
2023-05-15T20:56:32.200Z,30.95
2023-05-15T20:59:16.346Z,31.05
2023-05-15T21:04:50.824Z,31.25
2023-05-15T21:07:55.403Z,31.44
2023-05-15T21:10:41.347Z,31.54
2023-05-15T21:13:32.494Z,31.64
2023-05-15T21:16:11.521Z,31.63
2023-05-15T21:18:51.977Z,31.72
2023-05-15T21:21:32.046Z,31.70
2023-05-15T21:27:27.327Z,31.52
2023-05-15T21:33:30.978Z,31.63
2023-05-15T21:36:00.042Z,31.47
2023-05-15T21:38:30.258Z,31.77
2023-05-15T21:41:00.368Z,31.10
2023-05-15T21:43:29.422Z,31.66
2023-05-15T21:45:58.765Z,31.49
2023-05-15T21:48:35.657Z,31.83
2023-05-15T21:51:04.968Z,31.33
2023-05-15T21:53:34.199Z,31.68
2023-05-15T21:56:07.149Z,31.43
2023-05-15T21:58:42.337Z,32.10
2023-05-15T22:01:20.486Z,31.83
2023-05-15T22:03:50.394Z,32.37
2023-05-15T22:06:21.375Z,32.49
2023-05-15T22:08:53.121Z,32.47
2023-05-15T22:11:24.242Z,32.84
2023-05-15T22:14:01.598Z,33.20
2023-05-15T22:16:36.632Z,33.06
2023-05-15T22:19:21.464Z,33.65
2023-05-15T22:22:03.629Z,33.16
2023-05-15T22:24:35.459Z,33.22
2023-05-15T22:27:04.964Z,33.42
2023-05-15T22:29:39.342Z,33.83
2023-05-15T22:32:09.060Z,33.73
2023-05-15T22:34:38.489Z,33.75
2023-05-15T22:37:16.742Z,33.74
2023-05-15T22:39:53.738Z,33.83
2023-05-15T22:42:36.084Z,33.14
2023-05-15T22:45:08.502Z,32.69
2023-05-15T22:47:37.483Z,32.96
2023-05-15T22:50:07.013Z,32.83
2023-05-15T22:52:44.124Z,32.80
2023-05-15T22:55:18.682Z,32.65
2023-05-15T22:57:48.015Z,32.51
2023-05-15T23:00:18.195Z,32.60
2023-05-15T23:02:47.588Z,32.65
2023-05-15T23:05:23.184Z,32.57
2023-05-15T23:08:26.398Z,32.08
2023-05-15T23:10:54.244Z,32.06
2023-05-15T23:13:51.336Z,32.18
2023-05-15T23:16:26.649Z,32.21
2023-05-15T23:19:26.388Z,32.14
2023-05-15T23:22:04.547Z,32.20
2023-05-15T23:24:42.486Z,31.96
2023-05-15T23:30:15.421Z,31.91
2023-05-15T23:32:47.456Z,31.71
2023-05-15T23:35:16.846Z,31.85
2023-05-15T23:37:55.587Z,32.79
2023-05-15T23:40:37.140Z,33.43
2023-05-15T23:43:27.423Z,33.56
2023-05-15T23:45:59.350Z,33.08
2023-05-15T23:48:38.260Z,34.07
2023-05-15T23:51:10.935Z,34.62
2023-05-15T23:53:44.124Z,34.01
2023-05-15T23:56:13.618Z,33.35
2023-05-15T23:58:44.818Z,34.13
